sensor_id;sensor_type;location;lat;lon;timestamp;pressure;altitude;pressure_sealevel;temperature;humidity
58686;BME280;44465;53.206;-6.106;2024-03-17T00:01:37;100831.06;;;20.74;49.63
58686;BME280;44465;53.206;-6.106;2024-03-17T00:04:03;100824.09;;;20.70;49.70
58686;BME280;44465;53.206;-6.106;2024-03-17T00:06:32;100834.75;;;20.72;49.63
58686;BME280;44465;53.206;-6.106;2024-03-17T00:08:58;100840.00;;;20.73;49.45
58686;BME280;44465;53.206;-6.106;2024-03-17T00:11:24;100845.22;;;20.76;49.39
58686;BME280;44465;53.206;-6.106;2024-03-17T00:13:49;100831.19;;;20.71;49.50
58686;BME280;44465;53.206;-6.106;2024-03-17T00:16:15;100839.00;;;20.76;49.60
58686;BME280;44465;53.206;-6.106;2024-03-17T00:18:45;100836.41;;;20.74;49.64
58686;BME280;44465;53.206;-6.106;2024-03-17T00:21:12;100808.06;;;20.70;49.55
58686;BME280;44465;53.206;-6.106;2024-03-17T00:23:39;100818.75;;;20.70;49.35
58686;BME280;44465;53.206;-6.106;2024-03-17T00:26:04;100830.97;;;20.76;49.49
58686;BME280;44465;53.206;-6.106;2024-03-17T00:28:30;100823.94;;;20.73;49.57
58686;BME280;44465;53.206;-6.106;2024-03-17T00:30:55;100828.59;;;20.70;49.57
58686;BME280;44465;53.206;-6.106;2024-03-17T00:33:21;100824.97;;;20.71;49.81
58686;BME280;44465;53.206;-6.106;2024-03-17T00:35:46;100815.47;;;20.65;49.76
58686;BME280;44465;53.206;-6.106;2024-03-17T00:38:12;100820.72;;;20.67;49.87
58686;BME280;44465;53.206;-6.106;2024-03-17T00:40:38;100830.25;;;20.72;49.63
58686;BME280;44465;53.206;-6.106;2024-03-17T00:43:06;100825.94;;;20.70;49.34
58686;BME280;44465;53.206;-6.106;2024-03-17T00:45:32;100817.34;;;20.63;49.60
58686;BME280;44465;53.206;-6.106;2024-03-17T00:47:57;100837.34;;;20.73;49.67
58686;BME280;44465;53.206;-6.106;2024-03-17T00:50:23;100824.28;;;20.67;49.68
58686;BME280;44465;53.206;-6.106;2024-03-17T00:52:48;100833.88;;;20.71;49.42
58686;BME280;44465;53.206;-6.106;2024-03-17T00:55:14;100832.91;;;20.72;49.49
58686;BME280;44465;53.206;-6.106;2024-03-17T00:57:40;100830.22;;;20.74;49.58
58686;BME280;44465;53.206;-6.106;2024-03-17T01:00:06;100831.19;;;20.71;50.03
58686;BME280;44465;53.206;-6.106;2024-03-17T01:02:35;100827.75;;;20.69;49.67
58686;BME280;44465;53.206;-6.106;2024-03-17T01:05:01;100821.53;;;20.69;49.60
58686;BME280;44465;53.206;-6.106;2024-03-17T01:07:26;100819.72;;;20.69;49.51
58686;BME280;44465;53.206;-6.106;2024-03-17T01:09:52;100825.84;;;20.71;49.49
58686;BME280;44465;53.206;-6.106;2024-03-17T01:12:17;100815.22;;;20.70;49.58
58686;BME280;44465;53.206;-6.106;2024-03-17T01:14:43;100805.63;;;20.66;49.62
58686;BME280;44465;53.206;-6.106;2024-03-17T01:17:09;100803.81;;;20.66;49.56
58686;BME280;44465;53.206;-6.106;2024-03-17T01:19:35;100807.09;;;20.71;49.33
58686;BME280;44465;53.206;-6.106;2024-03-17T01:22:01;100808.84;;;20.72;49.38
58686;BME280;44465;53.206;-6.106;2024-03-17T01:24:27;100809.72;;;20.73;49.35
58686;BME280;44465;53.206;-6.106;2024-03-17T01:27:00;100802.69;;;20.70;49.61
58686;BME280;44465;53.206;-6.106;2024-03-17T01:29:26;100795.44;;;20.72;49.61
58686;BME280;44465;53.206;-6.106;2024-03-17T01:31:52;100789.25;;;20.72;49.50
58686;BME280;44465;53.206;-6.106;2024-03-17T01:34:18;100793.03;;;20.68;49.65
58686;BME280;44465;53.206;-6.106;2024-03-17T01:36:44;100783.22;;;20.68;49.51
58686;BME280;44465;53.206;-6.106;2024-03-17T01:39:09;100790.28;;;20.69;49.50
58686;BME280;44465;53.206;-6.106;2024-03-17T01:41:36;100783.22;;;20.68;49.49
58686;BME280;44465;53.206;-6.106;2024-03-17T01:44:02;100784.22;;;20.66;49.36
58686;BME280;44465;53.206;-6.106;2024-03-17T01:46:27;100773.59;;;20.64;49.71
58686;BME280;44465;53.206;-6.106;2024-03-17T01:48:54;100778.97;;;20.64;49.54
58686;BME280;44465;53.206;-6.106;2024-03-17T01:51:20;100775.34;;;20.65;49.54
58686;BME280;44465;53.206;-6.106;2024-03-17T01:53:48;100761.97;;;20.65;49.42
58686;BME280;44465;53.206;-6.106;2024-03-17T01:56:15;100751.41;;;20.62;49.59
58686;BME280;44465;53.206;-6.106;2024-03-17T01:58:44;100759.88;;;20.70;49.54
58686;BME280;44465;53.206;-6.106;2024-03-17T02:01:13;100760.13;;;20.66;49.56
58686;BME280;44465;53.206;-6.106;2024-03-17T02:03:42;100764.22;;;20.73;49.57
58686;BME280;44465;53.206;-6.106;2024-03-17T02:06:08;100747.63;;;20.66;49.56
58686;BME280;44465;53.206;-6.106;2024-03-17T02:08:49;100753.69;;;20.70;49.70
58686;BME280;44465;53.206;-6.106;2024-03-17T02:11:28;100747.63;;;20.66;49.65
58686;BME280;44465;53.206;-6.106;2024-03-17T02:13:55;100745.03;;;20.65;49.66
58686;BME280;44465;53.206;-6.106;2024-03-17T02:16:22;100736.50;;;20.58;49.62
58686;BME280;44465;53.206;-6.106;2024-03-17T02:18:47;100739.06;;;20.59;49.79
58686;BME280;44465;53.206;-6.106;2024-03-17T02:21:14;100753.00;;;20.66;49.70
58686;BME280;44465;53.206;-6.106;2024-03-17T02:23:42;100751.09;;;20.68;49.57
58686;BME280;44465;53.206;-6.106;2024-03-17T02:26:07;100746.75;;;20.66;49.58
58686;BME280;44465;53.206;-6.106;2024-03-17T02:28:41;100746.59;;;20.69;49.78
58686;BME280;44465;53.206;-6.106;2024-03-17T02:31:08;100741.16;;;20.70;49.73
58686;BME280;44465;53.206;-6.106;2024-03-17T02:33:33;100747.53;;;20.68;49.71
58686;BME280;44465;53.206;-6.106;2024-03-17T02:35:59;100742.88;;;20.71;49.55
58686;BME280;44465;53.206;-6.106;2024-03-17T02:38:25;100747.47;;;20.69;49.82
58686;BME280;44465;53.206;-6.106;2024-03-17T02:41:09;100739.44;;;20.69;49.78
58686;BME280;44465;53.206;-6.106;2024-03-17T02:43:35;100744.81;;;20.69;49.70
58686;BME280;44465;53.206;-6.106;2024-03-17T02:46:02;100736.06;;;20.66;49.75
58686;BME280;44465;53.206;-6.106;2024-03-17T02:48:30;100732.63;;;20.64;49.64
58686;BME280;44465;53.206;-6.106;2024-03-17T02:50:56;100734.31;;;20.65;49.87
58686;BME280;44465;53.206;-6.106;2024-03-17T02:53:22;100732.63;;;20.64;49.48
58686;BME280;44465;53.206;-6.106;2024-03-17T02:55:48;100741.50;;;20.64;49.81
58686;BME280;44465;53.206;-6.106;2024-03-17T02:58:13;100728.38;;;20.59;49.69
58686;BME280;44465;53.206;-6.106;2024-03-17T03:00:39;100739.59;;;20.66;49.78
58686;BME280;44465;53.206;-6.106;2024-03-17T03:03:05;100728.13;;;20.64;49.58
58686;BME280;44465;53.206;-6.106;2024-03-17T03:05:31;100727.88;;;20.69;49.89
58686;BME280;44465;53.206;-6.106;2024-03-17T03:07:56;100723.56;;;20.66;49.72
58686;BME280;44465;53.206;-6.106;2024-03-17T03:10:22;100720.78;;;20.68;49.72
58686;BME280;44465;53.206;-6.106;2024-03-17T03:12:47;100712.06;;;20.64;49.78
58686;BME280;44465;53.206;-6.106;2024-03-17T03:15:13;100714.75;;;20.64;49.73
58686;BME280;44465;53.206;-6.106;2024-03-17T03:17:43;100713.78;;;20.65;49.47
58686;BME280;44465;53.206;-6.106;2024-03-17T03:20:11;100713.00;;;20.63;49.57
58686;BME280;44465;53.206;-6.106;2024-03-17T03:22:37;100714.66;;;20.66;49.49
58686;BME280;44465;53.206;-6.106;2024-03-17T03:25:03;100704.28;;;20.59;49.80
58686;BME280;44465;53.206;-6.106;2024-03-17T03:27:28;100716.63;;;20.62;49.69
58686;BME280;44465;53.206;-6.106;2024-03-17T03:29:54;100716.56;;;20.64;49.86
58686;BME280;44465;53.206;-6.106;2024-03-17T03:32:21;100723.63;;;20.65;49.50
58686;BME280;44465;53.206;-6.106;2024-03-17T03:34:47;100713.16;;;20.60;49.63
58686;BME280;44465;53.206;-6.106;2024-03-17T03:37:12;100713.78;;;20.65;49.81
58686;BME280;44465;53.206;-6.106;2024-03-17T03:39:38;100721.81;;;20.65;49.38
58686;BME280;44465;53.206;-6.106;2024-03-17T03:42:04;100710.69;;;20.57;49.67
58686;BME280;44465;53.206;-6.106;2024-03-17T03:44:29;100722.59;;;20.67;49.83
58686;BME280;44465;53.206;-6.106;2024-03-17T03:46:58;100716.56;;;20.64;49.53
58686;BME280;44465;53.206;-6.106;2024-03-17T03:49:26;100725.34;;;20.66;49.58
58686;BME280;44465;53.206;-6.106;2024-03-17T03:51:53;100735.03;;;20.68;49.64
58686;BME280;44465;53.206;-6.106;2024-03-17T03:54:19;100732.44;;;20.67;49.57
58686;BME280;44465;53.206;-6.106;2024-03-17T03:56:45;100727.19;;;20.65;49.77
58686;BME280;44465;53.206;-6.106;2024-03-17T03:59:10;100716.56;;;20.64;49.66
58686;BME280;44465;53.206;-6.106;2024-03-17T04:01:36;100720.09;;;20.64;49.75
58686;BME280;44465;53.206;-6.106;2024-03-17T04:04:02;100715.69;;;20.63;49.84
58686;BME280;44465;53.206;-6.106;2024-03-17T04:06:28;100719.31;;;20.62;49.90
58686;BME280;44465;53.206;-6.106;2024-03-17T04:08:54;100708.59;;;20.62;49.59
58686;BME280;44465;53.206;-6.106;2024-03-17T04:11:19;100701.72;;;20.58;49.37
58686;BME280;44465;53.206;-6.106;2024-03-17T04:13:45;100720.88;;;20.66;49.31
58686;BME280;44465;53.206;-6.106;2024-03-17T04:16:12;100704.97;;;20.63;49.58
58686;BME280;44465;53.206;-6.106;2024-03-17T04:18:40;100705.34;;;20.57;49.71
58686;BME280;44465;53.206;-6.106;2024-03-17T04:21:06;100709.56;;;20.61;49.56
58686;BME280;44465;53.206;-6.106;2024-03-17T04:23:35;100717.31;;;20.66;49.49
58686;BME280;44465;53.206;-6.106;2024-03-17T04:26:04;100719.94;;;20.67;49.61
58686;BME280;44465;53.206;-6.106;2024-03-17T04:28:33;100711.38;;;20.60;49.40
58686;BME280;44465;53.206;-6.106;2024-03-17T04:31:03;100717.41;;;20.64;49.70
58686;BME280;44465;53.206;-6.106;2024-03-17T04:33:30;100701.53;;;20.61;49.59
58686;BME280;44465;53.206;-6.106;2024-03-17T04:35:55;100703.44;;;20.59;49.80
58686;BME280;44465;53.206;-6.106;2024-03-17T04:38:21;100706.72;;;20.64;49.79
58686;BME280;44465;53.206;-6.106;2024-03-17T04:40:46;100698.94;;;20.59;49.70
58686;BME280;44465;53.206;-6.106;2024-03-17T04:43:13;100711.28;;;20.62;49.80
58686;BME280;44465;53.206;-6.106;2024-03-17T04:45:39;100717.31;;;20.66;49.57
58686;BME280;44465;53.206;-6.106;2024-03-17T04:48:05;100713.97;;;20.62;49.67
58686;BME280;44465;53.206;-6.106;2024-03-17T04:50:32;100709.56;;;20.61;49.82
58686;BME280;44465;53.206;-6.106;2024-03-17T04:52:59;100727.00;;;20.68;49.79
58686;BME280;44465;53.206;-6.106;2024-03-17T04:55:29;100714.84;;;20.63;49.76
58686;BME280;44465;53.206;-6.106;2024-03-17T04:57:56;100724.50;;;20.65;49.66
58686;BME280;44465;53.206;-6.106;2024-03-17T05:00:22;100718.25;;;20.65;49.56
58686;BME280;44465;53.206;-6.106;2024-03-17T05:02:47;100717.31;;;20.66;49.48
58686;BME280;44465;53.206;-6.106;2024-03-17T05:05:13;100714.16;;;20.59;49.73
58686;BME280;44465;53.206;-6.106;2024-03-17T05:07:38;100733.47;;;20.64;49.81
58686;BME280;44465;53.206;-6.106;2024-03-17T05:10:04;100730.00;;;20.62;49.75
58686;BME280;44465;53.206;-6.106;2024-03-17T05:12:31;100721.38;;;20.57;49.69
58686;BME280;44465;53.206;-6.106;2024-03-17T05:14:57;100717.66;;;20.59;49.94
58686;BME280;44465;53.206;-6.106;2024-03-17T05:17:22;100729.84;;;20.65;49.57
58686;BME280;44465;53.206;-6.106;2024-03-17T05:19:48;100729.06;;;20.63;49.44
58686;BME280;44465;53.206;-6.106;2024-03-17T05:22:13;100723.63;;;20.65;49.68
58686;BME280;44465;53.206;-6.106;2024-03-17T05:24:39;100722.78;;;20.64;49.79
58686;BME280;44465;53.206;-6.106;2024-03-17T05:27:07;100707.75;;;20.61;49.66
58686;BME280;44465;53.206;-6.106;2024-03-17T05:29:33;100716.38;;;20.67;49.84
58686;BME280;44465;53.206;-6.106;2024-03-17T05:32:03;100703.00;;;20.67;49.96
58686;BME280;44465;53.206;-6.106;2024-03-17T05:34:29;100714.75;;;20.64;49.40
58686;BME280;44465;53.206;-6.106;2024-03-17T05:36:55;100704.97;;;20.63;49.85
58686;BME280;44465;53.206;-6.106;2024-03-17T05:39:20;100702.41;;;20.61;49.80
58686;BME280;44465;53.206;-6.106;2024-03-17T05:41:46;100708.59;;;20.62;49.52
58686;BME280;44465;53.206;-6.106;2024-03-17T05:44:15;100692.81;;;20.57;49.71
58686;BME280;44465;53.206;-6.106;2024-03-17T05:46:40;100698.09;;;20.59;49.67
58686;BME280;44465;53.206;-6.106;2024-03-17T05:49:06;100699.53;;;20.65;49.75
58686;BME280;44465;53.206;-6.106;2024-03-17T05:51:32;100697.91;;;20.62;49.76
58686;BME280;44465;53.206;-6.106;2024-03-17T05:53:57;100704.81;;;20.66;49.84
58686;BME280;44465;53.206;-6.106;2024-03-17T05:56:24;100680.81;;;20.49;49.80
58686;BME280;44465;53.206;-6.106;2024-03-17T05:58:52;100697.91;;;20.62;49.74
58686;BME280;44465;53.206;-6.106;2024-03-17T06:01:18;100692.41;;;20.65;49.70
58686;BME280;44465;53.206;-6.106;2024-03-17T06:03:44;100687.19;;;20.62;49.61
58686;BME280;44465;53.206;-6.106;2024-03-17T06:06:10;100690.50;;;20.67;49.79
58686;BME280;44465;53.206;-6.106;2024-03-17T06:08:36;100673.91;;;20.60;49.77
58686;BME280;44465;53.206;-6.106;2024-03-17T06:11:03;100671.34;;;20.59;49.73
58686;BME280;44465;53.206;-6.106;2024-03-17T06:13:29;100671.34;;;20.59;50.03
58686;BME280;44465;53.206;-6.106;2024-03-17T06:15:55;100680.13;;;20.61;49.63
58686;BME280;44465;53.206;-6.106;2024-03-17T06:18:26;100685.31;;;20.64;49.65
58686;BME280;44465;53.206;-6.106;2024-03-17T06:20:52;100683.94;;;20.57;49.82
58686;BME280;44465;53.206;-6.106;2024-03-17T06:23:17;100684.78;;;20.57;49.82
58686;BME280;44465;53.206;-6.106;2024-03-17T06:25:45;100692.50;;;20.64;49.72
58686;BME280;44465;53.206;-6.106;2024-03-17T06:28:12;100695.16;;;20.64;49.60
58686;BME280;44465;53.206;-6.106;2024-03-17T06:30:46;100696.97;;;20.63;49.55
58686;BME280;44465;53.206;-6.106;2024-03-17T06:33:16;100686.16;;;20.65;49.37
58686;BME280;44465;53.206;-6.106;2024-03-17T06:35:45;100697.59;;;20.68;49.63
58686;BME280;44465;53.206;-6.106;2024-03-17T06:38:12;100688.69;;;20.68;49.61
58686;BME280;44465;53.206;-6.106;2024-03-17T06:40:37;100692.22;;;20.68;49.44
58686;BME280;44465;53.206;-6.106;2024-03-17T06:43:03;100691.50;;;20.65;49.58
58686;BME280;44465;53.206;-6.106;2024-03-17T06:45:29;100686.25;;;20.63;49.96
58686;BME280;44465;53.206;-6.106;2024-03-17T06:47:55;100674.97;;;20.58;49.71
58686;BME280;44465;53.206;-6.106;2024-03-17T06:50:21;100675.81;;;20.58;49.54
58686;BME280;44465;53.206;-6.106;2024-03-17T06:52:47;100674.25;;;20.54;49.78
58686;BME280;44465;53.206;-6.106;2024-03-17T06:55:33;100669.09;;;20.51;49.82
58686;BME280;44465;53.206;-6.106;2024-03-17T06:57:59;100690.66;;;20.64;49.73
58686;BME280;44465;53.206;-6.106;2024-03-17T07:00:24;100688.78;;;20.66;49.72
58686;BME280;44465;53.206;-6.106;2024-03-17T07:02:50;100686.00;;;20.68;49.72
58686;BME280;44465;53.206;-6.106;2024-03-17T07:05:16;100685.31;;;20.64;49.87
58686;BME280;44465;53.206;-6.106;2024-03-17T07:07:42;100679.78;;;20.67;49.68
58686;BME280;44465;53.206;-6.106;2024-03-17T07:10:09;100674.44;;;20.67;49.65
58686;BME280;44465;53.206;-6.106;2024-03-17T07:12:36;100680.13;;;20.61;49.79
58686;BME280;44465;53.206;-6.106;2024-03-17T07:15:01;100681.69;;;20.65;49.59
58686;BME280;44465;53.206;-6.106;2024-03-17T07:17:27;100674.78;;;20.61;49.50
58686;BME280;44465;53.206;-6.106;2024-03-17T07:19:52;100679.97;;;20.64;49.66
58686;BME280;44465;53.206;-6.106;2024-03-17T07:22:18;100682.63;;;20.64;49.67
58686;BME280;44465;53.206;-6.106;2024-03-17T07:24:43;100682.63;;;20.64;49.63
58686;BME280;44465;53.206;-6.106;2024-03-17T07:27:10;100668.66;;;20.59;49.60
58686;BME280;44465;53.206;-6.106;2024-03-17T07:29:39;100673.75;;;20.64;49.48
58686;BME280;44465;53.206;-6.106;2024-03-17T07:32:05;100677.53;;;20.59;49.66
58686;BME280;44465;53.206;-6.106;2024-03-17T07:34:31;100682.53;;;20.66;49.65
58686;BME280;44465;53.206;-6.106;2024-03-17T07:36:58;100676.50;;;20.62;49.54
58686;BME280;44465;53.206;-6.106;2024-03-17T07:39:28;100682.47;;;20.67;49.36
58686;BME280;44465;53.206;-6.106;2024-03-17T07:41:58;100678.91;;;20.67;49.57
58686;BME280;44465;53.206;-6.106;2024-03-17T07:44:25;100681.69;;;20.65;49.60
58686;BME280;44465;53.206;-6.106;2024-03-17T07:46:51;100666.00;;;20.59;49.55
58686;BME280;44465;53.206;-6.106;2024-03-17T07:49:16;100675.66;;;20.61;49.59
58686;BME280;44465;53.206;-6.106;2024-03-17T07:51:42;100679.28;;;20.60;49.32
58686;BME280;44465;53.206;-6.106;2024-03-17T07:54:09;100683.47;;;20.65;49.57
58686;BME280;44465;53.206;-6.106;2024-03-17T07:56:34;100679.78;;;20.67;49.54
58686;BME280;44465;53.206;-6.106;2024-03-17T07:59:36;100651.03;;;20.55;49.46
58686;BME280;44465;53.206;-6.106;2024-03-17T08:02:02;100670.97;;;20.65;49.37
58686;BME280;44465;53.206;-6.106;2024-03-17T08:04:27;100664.00;;;20.63;49.71
58686;BME280;44465;53.206;-6.106;2024-03-17T08:06:53;100655.19;;;20.60;49.45
58686;BME280;44465;53.206;-6.106;2024-03-17T08:09:18;100656.91;;;20.61;49.65
58686;BME280;44465;53.206;-6.106;2024-03-17T08:11:44;100655.03;;;20.64;49.41
58686;BME280;44465;53.206;-6.106;2024-03-17T08:14:12;100664.94;;;20.61;49.60
58686;BME280;44465;53.206;-6.106;2024-03-17T08:16:38;100658.72;;;20.61;49.66
58686;BME280;44465;53.206;-6.106;2024-03-17T08:19:04;100670.03;;;20.66;49.63
58686;BME280;44465;53.206;-6.106;2024-03-17T08:21:30;100674.44;;;20.67;49.61
58686;BME280;44465;53.206;-6.106;2024-03-17T08:23:55;100668.22;;;20.67;49.44
58686;BME280;44465;53.206;-6.106;2024-03-17T08:26:21;100667.53;;;20.63;49.55
58686;BME280;44465;53.206;-6.106;2024-03-17T08:28:46;100667.44;;;20.65;49.34
58686;BME280;44465;53.206;-6.106;2024-03-17T08:31:13;100663.91;;;20.64;49.34
58686;BME280;44465;53.206;-6.106;2024-03-17T08:33:40;100661.31;;;20.63;49.75
58686;BME280;44465;53.206;-6.106;2024-03-17T08:36:07;100675.38;;;20.66;49.55
58686;BME280;44465;53.206;-6.106;2024-03-17T08:38:34;100672.63;;;20.68;49.54
58686;BME280;44465;53.206;-6.106;2024-03-17T08:41:08;100679.78;;;20.67;49.28
58686;BME280;44465;53.206;-6.106;2024-03-17T08:43:34;100669.25;;;20.64;49.54
58686;BME280;44465;53.206;-6.106;2024-03-17T08:46:05;100670.03;;;20.66;49.60
58686;BME280;44465;53.206;-6.106;2024-03-17T08:48:33;100675.97;;;20.71;49.53
58686;BME280;44465;53.206;-6.106;2024-03-17T08:50:59;100678.75;;;20.70;49.50
58686;BME280;44465;53.206;-6.106;2024-03-17T08:53:27;100673.31;;;20.71;49.69
58686;BME280;44465;53.206;-6.106;2024-03-17T08:55:53;100678.66;;;20.71;49.45
58686;BME280;44465;53.206;-6.106;2024-03-17T08:58:23;100675.97;;;20.71;49.31
58686;BME280;44465;53.206;-6.106;2024-03-17T09:00:52;100671.56;;;20.70;49.59
58686;BME280;44465;53.206;-6.106;2024-03-17T09:03:34;100675.13;;;20.71;49.40
58686;BME280;44465;53.206;-6.106;2024-03-17T09:06:00;100677.72;;;20.72;49.40
58686;BME280;44465;53.206;-6.106;2024-03-17T09:08:26;100662.78;;;20.68;49.36
58686;BME280;44465;53.206;-6.106;2024-03-17T09:10:54;100667.94;;;20.71;49.43
58686;BME280;44465;53.206;-6.106;2024-03-17T09:13:22;100656.41;;;20.71;49.47
58686;BME280;44465;53.206;-6.106;2024-03-17T09:15:58;100667.00;;;20.72;49.33
58686;BME280;44465;53.206;-6.106;2024-03-17T09:18:33;100662.69;;;20.70;49.14
58686;BME280;44465;53.206;-6.106;2024-03-17T09:21:03;100668.91;;;20.70;49.22
58686;BME280;44465;53.206;-6.106;2024-03-17T09:23:29;100659.19;;;20.69;49.35
58686;BME280;44465;53.206;-6.106;2024-03-17T09:26:06;100664.31;;;20.74;49.50
58686;BME280;44465;53.206;-6.106;2024-03-17T09:28:34;100662.47;;;20.74;49.36
58686;BME280;44465;53.206;-6.106;2024-03-17T09:31:00;100658.13;;;20.72;49.21
58686;BME280;44465;53.206;-6.106;2024-03-17T09:33:27;100655.28;;;20.75;49.11
58686;BME280;44465;53.206;-6.106;2024-03-17T09:36:01;100661.66;;;20.72;49.46
58686;BME280;44465;53.206;-6.106;2024-03-17T09:38:30;100664.34;;;20.72;49.34
58686;BME280;44465;53.206;-6.106;2024-03-17T09:40:56;100656.50;;;20.69;49.21
58686;BME280;44465;53.206;-6.106;2024-03-17T09:43:27;100658.19;;;20.70;49.30
58686;BME280;44465;53.206;-6.106;2024-03-17T09:45:53;100660.72;;;20.73;49.24
58686;BME280;44465;53.206;-6.106;2024-03-17T09:48:26;100653.63;;;20.72;49.34
58686;BME280;44465;53.206;-6.106;2024-03-17T09:50:58;100651.78;;;20.74;49.20
58686;BME280;44465;53.206;-6.106;2024-03-17T09:53:29;100656.31;;;20.72;49.37
58686;BME280;44465;53.206;-6.106;2024-03-17T09:58:25;100657.91;;;20.76;49.43
58686;BME280;44465;53.206;-6.106;2024-03-17T10:00:50;100650.94;;;20.72;49.34
58686;BME280;44465;53.206;-6.106;2024-03-17T10:03:45;100662.13;;;20.81;49.17
58686;BME280;44465;53.206;-6.106;2024-03-17T10:06:14;100649.00;;;20.76;49.33
58686;BME280;44465;53.206;-6.106;2024-03-17T10:08:47;100651.50;;;20.79;49.17
58686;BME280;44465;53.206;-6.106;2024-03-17T10:11:17;100647.34;;;20.73;49.06
58686;BME280;44465;53.206;-6.106;2024-03-17T10:13:44;100641.13;;;20.73;49.18
58686;BME280;44465;53.206;-6.106;2024-03-17T10:16:24;100639.06;;;20.78;49.14
58686;BME280;44465;53.206;-6.106;2024-03-17T10:18:51;100635.19;;;20.84;49.37
58686;BME280;44465;53.206;-6.106;2024-03-17T10:21:26;100640.38;;;20.87;49.44
58686;BME280;44465;53.206;-6.106;2024-03-17T10:24:06;100624.56;;;20.82;49.48
58686;BME280;44465;53.206;-6.106;2024-03-17T10:29:22;100643.88;;;21.03;49.63
58686;BME280;44465;53.206;-6.106;2024-03-17T10:31:55;100628.34;;;20.94;49.98
58686;BME280;44465;53.206;-6.106;2024-03-17T10:34:22;100626.09;;;21.02;50.06
58686;BME280;44465;53.206;-6.106;2024-03-17T10:37:13;100626.97;;;21.03;49.97
58686;BME280;44465;53.206;-6.106;2024-03-17T10:39:40;100620.41;;;21.08;49.99
58686;BME280;44465;53.206;-6.106;2024-03-17T10:42:08;100630.91;;;21.12;50.14
58686;BME280;44465;53.206;-6.106;2024-03-17T10:44:35;100630.22;;;21.08;50.44
58686;BME280;44465;53.206;-6.106;2024-03-17T10:47:02;100631.44;;;21.02;50.27
58686;BME280;44465;53.206;-6.106;2024-03-17T10:49:31;100629.38;;;21.07;50.32
58686;BME280;44465;53.206;-6.106;2024-03-17T10:52:01;100642.84;;;21.06;50.11
58686;BME280;44465;53.206;-6.106;2024-03-17T10:54:27;100634.72;;;21.07;50.77
58686;BME280;44465;53.206;-6.106;2024-03-17T10:57:07;100633.50;;;21.13;50.75
58686;BME280;44465;53.206;-6.106;2024-03-17T10:59:41;100639.00;;;21.26;50.90
58686;BME280;44465;53.206;-6.106;2024-03-17T11:02:23;100622.34;;;21.21;50.72
58686;BME280;44465;53.206;-6.106;2024-03-17T11:04:54;100612.59;;;21.20;51.12
58686;BME280;44465;53.206;-6.106;2024-03-17T11:07:21;100623.09;;;21.23;51.10
58686;BME280;44465;53.206;-6.106;2024-03-17T11:09:48;100624.66;;;21.27;51.01
58686;BME280;44465;53.206;-6.106;2024-03-17T11:17:54;100605.31;;;21.22;50.95
58686;BME280;44465;53.206;-6.106;2024-03-17T11:20:23;100620.16;;;21.28;51.04
58686;BME280;44465;53.206;-6.106;2024-03-17T11:22:54;100620.16;;;21.28;51.00
58686;BME280;44465;53.206;-6.106;2024-03-17T11:27:55;100619.31;;;21.27;50.93
58686;BME280;44465;53.206;-6.106;2024-03-17T11:39:07;100621.53;;;21.35;50.83
58686;BME280;44465;53.206;-6.106;2024-03-17T11:41:53;100610.31;;;21.28;50.73
58686;BME280;44465;53.206;-6.106;2024-03-17T11:47:05;100633.47;;;21.29;50.83
58686;BME280;44465;53.206;-6.106;2024-03-17T11:49:35;100613.16;;;21.25;50.60
58686;BME280;44465;53.206;-6.106;2024-03-17T11:52:09;100621.88;;;21.29;50.60
58686;BME280;44465;53.206;-6.106;2024-03-17T11:54:37;100608.00;;;21.22;50.67
58686;BME280;44465;53.206;-6.106;2024-03-17T11:57:05;100623.53;;;21.31;50.65
58686;BME280;44465;53.206;-6.106;2024-03-17T11:59:31;100627.91;;;21.32;50.56
58686;BME280;44465;53.206;-6.106;2024-03-17T12:01:57;100621.97;;;21.27;50.47
58686;BME280;44465;53.206;-6.106;2024-03-17T12:04:24;100610.66;;;21.22;50.61
58686;BME280;44465;53.206;-6.106;2024-03-17T12:06:55;100616.53;;;21.29;50.59
58686;BME280;44465;53.206;-6.106;2024-03-17T12:09:26;100615.50;;;21.31;50.80
58686;BME280;44465;53.206;-6.106;2024-03-17T12:12:02;100618.94;;;21.33;50.56
58686;BME280;44465;53.206;-6.106;2024-03-17T12:14:29;100619.97;;;21.31;50.56
58686;BME280;44465;53.206;-6.106;2024-03-17T12:17:01;100613.94;;;21.27;50.65
58686;BME280;44465;53.206;-6.106;2024-03-17T12:19:27;100622.56;;;21.32;50.87
58686;BME280;44465;53.206;-6.106;2024-03-17T12:21:57;100629.56;;;21.35;50.64
58686;BME280;44465;53.206;-6.106;2024-03-17T12:24:37;100621.81;;;21.30;50.53
58686;BME280;44465;53.206;-6.106;2024-03-17T12:27:05;100620.66;;;21.34;50.57
58686;BME280;44465;53.206;-6.106;2024-03-17T12:29:35;100626.00;;;21.34;50.56
58686;BME280;44465;53.206;-6.106;2024-03-17T12:32:05;100620.66;;;21.34;50.47
58686;BME280;44465;53.206;-6.106;2024-03-17T12:34:35;100622.56;;;21.32;50.44
58686;BME280;44465;53.206;-6.106;2024-03-17T12:37:01;100616.06;;;21.36;50.46
58686;BME280;44465;53.206;-6.106;2024-03-17T12:39:28;100602.00;;;21.33;50.46
58686;BME280;44465;53.206;-6.106;2024-03-17T12:42:23;100611.78;;;21.34;50.36
58686;BME280;44465;53.206;-6.106;2024-03-17T12:44:59;100618.94;;;21.33;50.44
58686;BME280;44465;53.206;-6.106;2024-03-17T12:47:31;100607.47;;;21.31;50.48
58686;BME280;44465;53.206;-6.106;2024-03-17T12:49:58;100608.31;;;21.32;50.32
58686;BME280;44465;53.206;-6.106;2024-03-17T12:52:25;100587.28;;;21.26;50.45
58686;BME280;44465;53.206;-6.106;2024-03-17T12:55:01;100591.69;;;21.27;50.49
58686;BME280;44465;53.206;-6.106;2024-03-17T12:57:48;100599.44;;;21.31;50.45
58686;BME280;44465;53.206;-6.106;2024-03-17T13:00:32;100602.84;;;21.33;50.30
58686;BME280;44465;53.206;-6.106;2024-03-17T13:03:03;100609.78;;;21.37;50.28
58686;BME280;44465;53.206;-6.106;2024-03-17T13:05:32;100592.06;;;21.35;50.26
58686;BME280;44465;53.206;-6.106;2024-03-17T13:07:58;100586.63;;;21.36;50.19
58686;BME280;44465;53.206;-6.106;2024-03-17T13:10:25;100594.75;;;21.35;50.34